This is the latest recevied weather packets stored in our database for station/object LA1HSA-13. If no packets are shown the sender has not sent any weather packets the latest 10 day(s).
| Time | Temp. | Humidity | Pressure | Rain* | Wind** | Luminosity | Snow |
|---|---|---|---|---|---|---|---|
| 1777624803 | 15° C | 67% | 1023.3 hPa | 0 mm | - | - | - |
| 1777624204 | 13.89° C | 71% | 1023.4 hPa | 0 mm | - | - | - |
| 1777623603 | 13.89° C | 71% | 1023.1 hPa | 0 mm | - | - | - |
| 1777623003 | 13.33° C | 73% | 1023.4 hPa | 0 mm | - | - | - |
| 1777622404 | 13.33° C | 71% | 1023.4 hPa | 0 mm | - | - | - |
| 1777621803 | 12.22° C | 75% | 1023.4 hPa | 0 mm | - | - | - |
| 1777621204 | 12.22° C | 76% | 1023.3 hPa | 0 mm | - | - | - |
| 1777620603 | 11.67° C | 78% | 1023.7 hPa | 0 mm | - | - | - |
| 1777620004 | 11.11° C | 80% | 1023.9 hPa | 0 mm | - | - | - |
| 1777619403 | 10.56° C | 80% | 1023.7 hPa | 0 mm | - | - | - |
| 1777618803 | 10° C | 84% | 1023.7 hPa | 0 mm | - | - | - |
| 1777618204 | 10° C | 85% | 1023.7 hPa | 0 mm | - | - | - |
| 1777617603 | 8.89° C | 88% | 1023.9 hPa | 0 mm | - | - | - |
| 1777617004 | 8.33° C | 90% | 1023.9 hPa | 0 mm | - | - | - |
| 1777616403 | 7.22° C | 95% | 1024 hPa | 0 mm | - | - | - |
| 1777615803 | 6.67° C | 98% | 1024 hPa | 0 mm | - | - | - |
| 1777615203 | 6.67° C | 99% | 1024.1 hPa | 0 mm | - | - | - |
| 1777614603 | 6.11° C | 99% | 1023.9 hPa | 0 mm | - | - | - |
| 1777614004 | 5.56° C | 99% | 1023.9 hPa | 0 mm | - | - | - |
| 1777613403 | 5.56° C | 99% | 1024.1 hPa | 0 mm | - | - | - |
| 1777612804 | 5.56° C | 99% | 1024 hPa | 0 mm | - | - | - |
| 1777612203 | 5.56° C | 99% | 1024 hPa | 0 mm | - | - | - |
| 1777611604 | 5.56° C | 99% | 1024 hPa | 0 mm | - | - | - |
| 1777611003 | 5.56° C | 99% | 1024.2 hPa | 0 mm | - | - | - |
| 1777610403 | 5.56° C | 99% | 1024.1 hPa | 0 mm | - | - | - |
* Rain latest hour (hover to see other rain measurements)
** Current wind speed in m/s (hover to see current wind gust speed)